This is the latest recevied weather packets stored in our database for station/object WE0DX-1. If no packets are shown the sender has not sent any weather packets the latest 10 day(s).
| Time | Temp. | Humidity | Pressure | Rain* | Wind** | Luminosity | Snow |
|---|---|---|---|---|---|---|---|
| 1777235570 | 21.67° C | 75% | 1006.5 hPa | 0 mm | - | 14 W/m² | - |
| 1777235265 | 21.67° C | 74% | 1006.4 hPa | 0 mm | - | 23 W/m² | - |
| 1777234962 | 21.67° C | 73% | 1006.3 hPa | 0 mm | - | 31 W/m² | - |
| 1777234658 | 22.22° C | 72% | 1006.9 hPa | 0 mm | - | 15 W/m² | - |
| 1777234352 | 22.22° C | 71% | 1007 hPa | 0 mm | - | 37 W/m² | - |
| 1777234049 | 22.22° C | 71% | 1007 hPa | 0 mm | - | 19 W/m² | - |
| 1777233740 | 22.22° C | 70% | 1006.8 hPa | 0 mm | - | 65 W/m² | - |
| 1777233436 | 22.22° C | 71% | 1007.2 hPa | 0 mm | - | 45 W/m² | - |
| 1777233135 | 22.22° C | 70% | 1007.2 hPa | 0 mm | - | 57 W/m² | - |
| 1777232831 | 22.22° C | 70% | 1007.1 hPa | 0 mm | - | 39 W/m² | - |
| 1777232530 | 22.22° C | 70% | 1007 hPa | 0 mm | - | 46 W/m² | - |
| 1777232228 | 22.22° C | 69% | 1007.2 hPa | 0 mm | - | 54 W/m² | - |
| 1777231923 | 22.22° C | 70% | 1006.8 hPa | 0 mm | - | 78 W/m² | - |
| 1777231621 | 22.22° C | 69% | 1006.7 hPa | 0 mm | - | 108 W/m² | - |
| 1777231317 | 22.78° C | 69% | 1006.9 hPa | 0 mm | - | 104 W/m² | - |
| 1777231013 | 22.78° C | 69% | 1006.7 hPa | 0 mm | - | 114 W/m² | - |
| 1777230709 | 22.22° C | 69% | 1006.6 hPa | 0 mm | - | 124 W/m² | - |
| 1777230404 | 22.78° C | 69% | 1006.8 hPa | 0 mm | - | 126 W/m² | - |
| 1777230101 | 22.78° C | 70% | 1006.8 hPa | 0 mm | - | 115 W/m² | - |
| 1777229798 | 22.78° C | 69% | 1006.8 hPa | 0 mm | - | 112 W/m² | - |
| 1777229495 | 22.78° C | 68% | 1006.8 hPa | 0 mm | - | 128 W/m² | - |
| 1777229191 | 22.78° C | 67% | 1006.9 hPa | 0 mm | - | 147 W/m² | - |
| 1777228889 | 22.78° C | 68% | 1007 hPa | 0 mm | - | 171 W/m² | - |
| 1777228584 | 22.78° C | 67% | 1006.9 hPa | 0 mm | - | 190 W/m² | - |
| 1777228281 | 22.78° C | 68% | 1006.9 hPa | 0 mm | - | 186 W/m² | - |
* Rain latest hour (hover to see other rain measurements)
** Current wind speed in m/s (hover to see current wind gust speed)